sensor_id;sensor_type;location;lat;lon;timestamp;P1;durP1;ratioP1;P2;durP2;ratioP2
65162;SDS011;51751;55.714;37.436;2023-02-10T00:01:27;8.85;;;4.30;;
65162;SDS011;51751;55.714;37.436;2023-02-10T00:03:54;6.78;;;3.85;;
65162;SDS011;51751;55.714;37.436;2023-02-10T00:06:20;6.75;;;3.67;;
65162;SDS011;51751;55.714;37.436;2023-02-10T00:09:09;7.13;;;3.67;;
65162;SDS011;51751;55.714;37.436;2023-02-10T00:11:37;5.72;;;3.58;;
65162;SDS011;51751;55.714;37.436;2023-02-10T00:14:21;6.47;;;3.92;;
65162;SDS011;51751;55.714;37.436;2023-02-10T00:16:51;7.22;;;3.92;;
65162;SDS011;51751;55.714;37.436;2023-02-10T00:19:22;6.80;;;3.65;;
65162;SDS011;51751;55.714;37.436;2023-02-10T00:21:49;9.23;;;3.70;;
65162;SDS011;51751;55.714;37.436;2023-02-10T00:24:15;6.90;;;3.70;;
65162;SDS011;51751;55.714;37.436;2023-02-10T00:26:41;5.47;;;3.10;;
65162;SDS011;51751;55.714;37.436;2023-02-10T00:29:07;7.80;;;3.50;;
65162;SDS011;51751;55.714;37.436;2023-02-10T00:31:33;9.90;;;3.95;;
65162;SDS011;51751;55.714;37.436;2023-02-10T00:33:59;6.10;;;3.45;;
65162;SDS011;51751;55.714;37.436;2023-02-10T00:36:26;6.72;;;3.63;;
65162;SDS011;51751;55.714;37.436;2023-02-10T00:38:52;5.68;;;3.40;;
65162;SDS011;51751;55.714;37.436;2023-02-10T00:41:19;6.22;;;3.60;;
65162;SDS011;51751;55.714;37.436;2023-02-10T00:43:46;5.55;;;3.03;;
65162;SDS011;51751;55.714;37.436;2023-02-10T00:46:13;7.78;;;3.22;;
65162;SDS011;51751;55.714;37.436;2023-02-10T00:48:40;6.10;;;3.50;;
65162;SDS011;51751;55.714;37.436;2023-02-10T00:51:06;7.03;;;3.28;;
65162;SDS011;51751;55.714;37.436;2023-02-10T00:53:32;7.07;;;3.13;;
65162;SDS011;51751;55.714;37.436;2023-02-10T00:55:59;6.72;;;3.45;;
65162;SDS011;51751;55.714;37.436;2023-02-10T00:58:25;7.63;;;3.55;;
65162;SDS011;51751;55.714;37.436;2023-02-10T01:03:40;13.57;;;3.38;;
65162;SDS011;51751;55.714;37.436;2023-02-10T01:06:06;4.35;;;2.67;;
65162;SDS011;51751;55.714;37.436;2023-02-10T01:08:34;4.85;;;3.03;;
65162;SDS011;51751;55.714;37.436;2023-02-10T01:11:04;6.93;;;3.50;;
65162;SDS011;51751;55.714;37.436;2023-02-10T01:13:31;6.65;;;3.10;;
65162;SDS011;51751;55.714;37.436;2023-02-10T01:16:01;5.80;;;3.35;;
65162;SDS011;51751;55.714;37.436;2023-02-10T01:18:30;8.25;;;3.50;;
65162;SDS011;51751;55.714;37.436;2023-02-10T01:20:57;9.98;;;3.95;;
65162;SDS011;51751;55.714;37.436;2023-02-10T01:23:23;7.22;;;3.35;;
65162;SDS011;51751;55.714;37.436;2023-02-10T01:25:48;8.05;;;3.65;;
65162;SDS011;51751;55.714;37.436;2023-02-10T01:28:14;5.53;;;3.25;;
65162;SDS011;51751;55.714;37.436;2023-02-10T01:30:40;7.13;;;3.63;;
65162;SDS011;51751;55.714;37.436;2023-02-10T01:33:06;7.40;;;3.55;;
65162;SDS011;51751;55.714;37.436;2023-02-10T01:35:32;9.55;;;4.90;;
65162;SDS011;51751;55.714;37.436;2023-02-10T01:37:58;9.30;;;3.95;;
65162;SDS011;51751;55.714;37.436;2023-02-10T01:40:25;8.07;;;3.45;;
65162;SDS011;51751;55.714;37.436;2023-02-10T01:42:51;6.97;;;3.45;;
65162;SDS011;51751;55.714;37.436;2023-02-10T01:45:27;6.68;;;3.92;;
65162;SDS011;51751;55.714;37.436;2023-02-10T01:47:58;8.30;;;3.78;;
65162;SDS011;51751;55.714;37.436;2023-02-10T01:50:29;8.77;;;4.03;;
65162;SDS011;51751;55.714;37.436;2023-02-10T01:52:57;8.95;;;4.30;;
65162;SDS011;51751;55.714;37.436;2023-02-10T01:55:28;9.00;;;3.85;;
65162;SDS011;51751;55.714;37.436;2023-02-10T01:58:18;9.10;;;4.20;;
65162;SDS011;51751;55.714;37.436;2023-02-10T02:00:47;7.85;;;4.18;;
65162;SDS011;51751;55.714;37.436;2023-02-10T02:03:13;9.10;;;4.40;;
65162;SDS011;51751;55.714;37.436;2023-02-10T02:05:40;10.95;;;4.18;;
65162;SDS011;51751;55.714;37.436;2023-02-10T02:08:15;7.82;;;4.00;;
65162;SDS011;51751;55.714;37.436;2023-02-10T02:13:35;7.22;;;4.03;;
65162;SDS011;51751;55.714;37.436;2023-02-10T02:18:58;10.43;;;4.55;;
65162;SDS011;51751;55.714;37.436;2023-02-10T02:36:04;8.10;;;4.40;;
65162;SDS011;51751;55.714;37.436;2023-02-10T02:38:40;9.55;;;5.07;;
65162;SDS011;51751;55.714;37.436;2023-02-10T02:41:07;9.43;;;4.78;;
65162;SDS011;51751;55.714;37.436;2023-02-10T02:43:34;9.65;;;4.75;;
65162;SDS011;51751;55.714;37.436;2023-02-10T02:46:15;10.63;;;4.97;;
65162;SDS011;51751;55.714;37.436;2023-02-10T02:51:48;13.73;;;5.72;;
65162;SDS011;51751;55.714;37.436;2023-02-10T02:57:22;10.57;;;5.10;;
65162;SDS011;51751;55.714;37.436;2023-02-10T02:59:56;10.85;;;5.68;;
65162;SDS011;51751;55.714;37.436;2023-02-10T03:02:30;9.95;;;5.60;;
65162;SDS011;51751;55.714;37.436;2023-02-10T03:04:58;11.38;;;5.72;;
65162;SDS011;51751;55.714;37.436;2023-02-10T03:07:24;10.40;;;6.00;;
65162;SDS011;51751;55.714;37.436;2023-02-10T03:09:50;11.40;;;6.20;;
65162;SDS011;51751;55.714;37.436;2023-02-10T03:12:16;10.90;;;5.97;;
65162;SDS011;51751;55.714;37.436;2023-02-10T03:14:42;9.63;;;5.55;;
65162;SDS011;51751;55.714;37.436;2023-02-10T03:17:08;11.20;;;6.40;;
65162;SDS011;51751;55.714;37.436;2023-02-10T03:19:34;12.32;;;6.13;;
65162;SDS011;51751;55.714;37.436;2023-02-10T03:22:00;14.60;;;6.03;;
65162;SDS011;51751;55.714;37.436;2023-02-10T03:24:26;12.30;;;6.03;;
65162;SDS011;51751;55.714;37.436;2023-02-10T03:26:52;9.75;;;5.80;;
65162;SDS011;51751;55.714;37.436;2023-02-10T03:29:18;14.10;;;6.90;;
65162;SDS011;51751;55.714;37.436;2023-02-10T03:31:44;9.90;;;5.72;;
65162;SDS011;51751;55.714;37.436;2023-02-10T03:34:09;11.55;;;6.68;;
65162;SDS011;51751;55.714;37.436;2023-02-10T03:36:35;12.07;;;6.80;;
65162;SDS011;51751;55.714;37.436;2023-02-10T03:39:02;11.10;;;6.68;;
65162;SDS011;51751;55.714;37.436;2023-02-10T03:41:29;12.50;;;6.93;;
65162;SDS011;51751;55.714;37.436;2023-02-10T03:43:54;11.60;;;6.43;;
65162;SDS011;51751;55.714;37.436;2023-02-10T03:46:20;11.60;;;6.25;;
65162;SDS011;51751;55.714;37.436;2023-02-10T03:48:47;11.30;;;6.10;;
65162;SDS011;51751;55.714;37.436;2023-02-10T03:51:31;12.10;;;6.70;;
65162;SDS011;51751;55.714;37.436;2023-02-10T03:53:57;11.80;;;6.00;;
65162;SDS011;51751;55.714;37.436;2023-02-10T03:56:23;10.32;;;5.70;;
65162;SDS011;51751;55.714;37.436;2023-02-10T03:58:49;10.40;;;6.45;;
65162;SDS011;51751;55.714;37.436;2023-02-10T04:01:16;13.15;;;6.63;;
65162;SDS011;51751;55.714;37.436;2023-02-10T04:03:42;12.85;;;7.00;;
65162;SDS011;51751;55.714;37.436;2023-02-10T04:06:08;15.68;;;7.03;;
65162;SDS011;51751;55.714;37.436;2023-02-10T04:08:53;8.75;;;5.55;;
65162;SDS011;51751;55.714;37.436;2023-02-10T04:11:19;12.10;;;6.32;;
65162;SDS011;51751;55.714;37.436;2023-02-10T04:13:45;13.82;;;6.97;;
65162;SDS011;51751;55.714;37.436;2023-02-10T04:16:12;16.90;;;6.32;;
65162;SDS011;51751;55.714;37.436;2023-02-10T04:18:40;13.55;;;7.30;;
65162;SDS011;51751;55.714;37.436;2023-02-10T04:21:07;12.40;;;7.93;;
65162;SDS011;51751;55.714;37.436;2023-02-10T04:23:34;14.77;;;7.63;;
65162;SDS011;51751;55.714;37.436;2023-02-10T04:26:00;11.35;;;5.60;;
65162;SDS011;51751;55.714;37.436;2023-02-10T04:28:26;13.40;;;7.13;;
65162;SDS011;51751;55.714;37.436;2023-02-10T04:30:53;12.57;;;7.07;;
65162;SDS011;51751;55.714;37.436;2023-02-10T04:33:20;15.13;;;6.00;;
65162;SDS011;51751;55.714;37.436;2023-02-10T04:35:47;12.13;;;5.95;;
65162;SDS011;51751;55.714;37.436;2023-02-10T04:38:13;13.15;;;7.03;;
65162;SDS011;51751;55.714;37.436;2023-02-10T04:40:39;11.80;;;6.28;;
65162;SDS011;51751;55.714;37.436;2023-02-10T04:43:05;13.85;;;6.45;;
65162;SDS011;51751;55.714;37.436;2023-02-10T04:45:31;13.48;;;6.80;;
65162;SDS011;51751;55.714;37.436;2023-02-10T04:47:57;12.55;;;5.85;;
65162;SDS011;51751;55.714;37.436;2023-02-10T04:50:23;11.13;;;4.93;;
65162;SDS011;51751;55.714;37.436;2023-02-10T04:52:49;12.93;;;6.82;;
65162;SDS011;51751;55.714;37.436;2023-02-10T04:55:15;14.43;;;6.25;;
65162;SDS011;51751;55.714;37.436;2023-02-10T04:57:41;16.05;;;7.40;;
65162;SDS011;51751;55.714;37.436;2023-02-10T05:00:06;12.18;;;6.28;;
65162;SDS011;51751;55.714;37.436;2023-02-10T05:02:33;12.07;;;6.38;;
65162;SDS011;51751;55.714;37.436;2023-02-10T05:04:59;9.90;;;5.88;;
65162;SDS011;51751;55.714;37.436;2023-02-10T05:07:25;12.95;;;6.20;;
65162;SDS011;51751;55.714;37.436;2023-02-10T05:09:51;10.45;;;5.90;;
65162;SDS011;51751;55.714;37.436;2023-02-10T05:12:17;10.50;;;6.25;;
65162;SDS011;51751;55.714;37.436;2023-02-10T05:14:43;15.32;;;6.38;;
65162;SDS011;51751;55.714;37.436;2023-02-10T05:17:09;12.13;;;7.30;;
65162;SDS011;51751;55.714;37.436;2023-02-10T05:19:35;11.73;;;6.18;;
65162;SDS011;51751;55.714;37.436;2023-02-10T05:22:01;26.38;;;7.45;;
65162;SDS011;51751;55.714;37.436;2023-02-10T05:24:45;13.70;;;6.57;;
65162;SDS011;51751;55.714;37.436;2023-02-10T05:27:11;11.75;;;6.13;;
65162;SDS011;51751;55.714;37.436;2023-02-10T05:29:37;11.88;;;6.43;;
65162;SDS011;51751;55.714;37.436;2023-02-10T05:32:02;11.50;;;6.43;;
65162;SDS011;51751;55.714;37.436;2023-02-10T05:34:28;14.02;;;6.82;;
65162;SDS011;51751;55.714;37.436;2023-02-10T05:36:54;12.30;;;5.85;;
65162;SDS011;51751;55.714;37.436;2023-02-10T05:39:20;14.30;;;7.20;;
65162;SDS011;51751;55.714;37.436;2023-02-10T05:41:56;13.55;;;6.43;;
65162;SDS011;51751;55.714;37.436;2023-02-10T05:44:23;11.45;;;6.43;;
65162;SDS011;51751;55.714;37.436;2023-02-10T05:46:50;12.80;;;6.90;;
65162;SDS011;51751;55.714;37.436;2023-02-10T05:49:16;9.85;;;5.22;;
65162;SDS011;51751;55.714;37.436;2023-02-10T05:51:42;13.23;;;7.32;;
65162;SDS011;51751;55.714;37.436;2023-02-10T05:54:09;12.02;;;7.00;;
65162;SDS011;51751;55.714;37.436;2023-02-10T05:56:35;16.92;;;7.32;;
65162;SDS011;51751;55.714;37.436;2023-02-10T05:59:01;12.15;;;6.32;;
65162;SDS011;51751;55.714;37.436;2023-02-10T06:01:27;10.95;;;5.32;;
65162;SDS011;51751;55.714;37.436;2023-02-10T06:03:54;9.75;;;5.47;;
65162;SDS011;51751;55.714;37.436;2023-02-10T06:06:19;10.45;;;6.25;;
65162;SDS011;51751;55.714;37.436;2023-02-10T06:08:46;11.95;;;6.50;;
65162;SDS011;51751;55.714;37.436;2023-02-10T06:11:11;12.27;;;5.95;;
65162;SDS011;51751;55.714;37.436;2023-02-10T06:13:38;11.10;;;5.32;;
65162;SDS011;51751;55.714;37.436;2023-02-10T06:16:04;11.23;;;5.80;;
65162;SDS011;51751;55.714;37.436;2023-02-10T06:18:30;10.02;;;5.53;;
65162;SDS011;51751;55.714;37.436;2023-02-10T06:20:57;12.48;;;6.38;;
65162;SDS011;51751;55.714;37.436;2023-02-10T06:23:24;10.45;;;5.65;;
65162;SDS011;51751;55.714;37.436;2023-02-10T06:25:50;9.57;;;5.75;;
65162;SDS011;51751;55.714;37.436;2023-02-10T06:28:23;9.25;;;5.22;;
65162;SDS011;51751;55.714;37.436;2023-02-10T06:30:49;11.32;;;6.28;;
65162;SDS011;51751;55.714;37.436;2023-02-10T06:33:15;10.25;;;6.05;;
65162;SDS011;51751;55.714;37.436;2023-02-10T06:35:41;10.52;;;5.32;;
65162;SDS011;51751;55.714;37.436;2023-02-10T06:38:07;9.55;;;4.95;;
65162;SDS011;51751;55.714;37.436;2023-02-10T06:40:33;10.30;;;5.70;;
65162;SDS011;51751;55.714;37.436;2023-02-10T06:42:59;12.32;;;5.80;;
65162;SDS011;51751;55.714;37.436;2023-02-10T06:45:26;12.88;;;6.57;;
65162;SDS011;51751;55.714;37.436;2023-02-10T06:47:53;12.30;;;6.03;;
65162;SDS011;51751;55.714;37.436;2023-02-10T06:50:18;10.90;;;5.60;;
65162;SDS011;51751;55.714;37.436;2023-02-10T06:52:45;13.35;;;6.63;;
65162;SDS011;51751;55.714;37.436;2023-02-10T06:55:11;13.80;;;6.35;;
65162;SDS011;51751;55.714;37.436;2023-02-10T06:57:38;17.90;;;6.53;;
65162;SDS011;51751;55.714;37.436;2023-02-10T07:00:06;11.18;;;5.70;;
65162;SDS011;51751;55.714;37.436;2023-02-10T07:02:33;11.00;;;6.18;;
65162;SDS011;51751;55.714;37.436;2023-02-10T07:05:01;11.25;;;5.72;;
65162;SDS011;51751;55.714;37.436;2023-02-10T07:07:32;12.70;;;6.50;;
65162;SDS011;51751;55.714;37.436;2023-02-10T07:09:58;10.63;;;5.75;;
65162;SDS011;51751;55.714;37.436;2023-02-10T07:12:24;11.43;;;5.30;;
65162;SDS011;51751;55.714;37.436;2023-02-10T07:14:53;9.73;;;5.10;;
65162;SDS011;51751;55.714;37.436;2023-02-10T07:17:19;13.50;;;6.80;;
65162;SDS011;51751;55.714;37.436;2023-02-10T07:19:45;13.90;;;6.93;;
65162;SDS011;51751;55.714;37.436;2023-02-10T07:22:11;12.85;;;7.15;;
65162;SDS011;51751;55.714;37.436;2023-02-10T07:24:37;13.57;;;7.03;;
65162;SDS011;51751;55.714;37.436;2023-02-10T07:27:03;13.73;;;6.88;;
65162;SDS011;51751;55.714;37.436;2023-02-10T07:29:30;10.77;;;6.55;;
65162;SDS011;51751;55.714;37.436;2023-02-10T07:31:56;15.82;;;7.07;;
65162;SDS011;51751;55.714;37.436;2023-02-10T07:34:25;11.32;;;6.32;;
65162;SDS011;51751;55.714;37.436;2023-02-10T07:36:51;10.88;;;6.38;;
65162;SDS011;51751;55.714;37.436;2023-02-10T07:39:20;14.00;;;6.60;;
65162;SDS011;51751;55.714;37.436;2023-02-10T07:42:05;8.63;;;4.72;;
65162;SDS011;51751;55.714;37.436;2023-02-10T07:44:49;12.90;;;6.32;;
65162;SDS011;51751;55.714;37.436;2023-02-10T07:47:15;15.27;;;5.78;;
65162;SDS011;51751;55.714;37.436;2023-02-10T07:49:41;12.15;;;6.00;;
65162;SDS011;51751;55.714;37.436;2023-02-10T07:52:07;10.80;;;6.35;;
65162;SDS011;51751;55.714;37.436;2023-02-10T07:54:32;10.35;;;6.38;;
65162;SDS011;51751;55.714;37.436;2023-02-10T07:56:58;11.77;;;5.82;;
65162;SDS011;51751;55.714;37.436;2023-02-10T07:59:24;9.55;;;5.32;;
65162;SDS011;51751;55.714;37.436;2023-02-10T08:01:50;10.45;;;5.88;;
65162;SDS011;51751;55.714;37.436;2023-02-10T08:04:16;11.38;;;6.15;;
65162;SDS011;51751;55.714;37.436;2023-02-10T08:06:42;15.88;;;6.50;;
65162;SDS011;51751;55.714;37.436;2023-02-10T08:09:08;10.48;;;6.03;;
65162;SDS011;51751;55.714;37.436;2023-02-10T08:11:34;10.07;;;5.18;;
65162;SDS011;51751;55.714;37.436;2023-02-10T08:14:01;12.95;;;6.10;;
65162;SDS011;51751;55.714;37.436;2023-02-10T08:16:27;10.60;;;5.78;;
65162;SDS011;51751;55.714;37.436;2023-02-10T08:18:53;9.57;;;5.50;;
65162;SDS011;51751;55.714;37.436;2023-02-10T08:21:19;9.75;;;5.80;;
65162;SDS011;51751;55.714;37.436;2023-02-10T08:23:45;14.40;;;6.78;;
65162;SDS011;51751;55.714;37.436;2023-02-10T08:26:12;11.45;;;6.30;;
65162;SDS011;51751;55.714;37.436;2023-02-10T08:28:39;8.80;;;5.00;;
65162;SDS011;51751;55.714;37.436;2023-02-10T08:31:06;8.65;;;5.30;;
65162;SDS011;51751;55.714;37.436;2023-02-10T08:33:36;11.32;;;5.60;;
65162;SDS011;51751;55.714;37.436;2023-02-10T08:36:04;9.90;;;5.38;;
65162;SDS011;51751;55.714;37.436;2023-02-10T08:38:32;10.57;;;5.40;;
65162;SDS011;51751;55.714;37.436;2023-02-10T08:40:58;13.25;;;6.22;;
65162;SDS011;51751;55.714;37.436;2023-02-10T08:43:24;10.75;;;6.40;;
65162;SDS011;51751;55.714;37.436;2023-02-10T08:45:50;9.63;;;4.97;;
65162;SDS011;51751;55.714;37.436;2023-02-10T08:48:17;13.90;;;6.22;;
65162;SDS011;51751;55.714;37.436;2023-02-10T08:50:43;7.80;;;4.65;;
65162;SDS011;51751;55.714;37.436;2023-02-10T08:53:09;13.55;;;5.32;;
65162;SDS011;51751;55.714;37.436;2023-02-10T08:55:35;11.02;;;5.90;;
65162;SDS011;51751;55.714;37.436;2023-02-10T08:58:02;8.23;;;4.95;;
65162;SDS011;51751;55.714;37.436;2023-02-10T09:00:28;8.73;;;4.40;;
65162;SDS011;51751;55.714;37.436;2023-02-10T09:02:54;9.70;;;5.50;;
65162;SDS011;51751;55.714;37.436;2023-02-10T09:05:20;9.75;;;5.03;;
65162;SDS011;51751;55.714;37.436;2023-02-10T09:07:46;8.27;;;4.15;;
65162;SDS011;51751;55.714;37.436;2023-02-10T09:10:12;9.90;;;5.03;;
65162;SDS011;51751;55.714;37.436;2023-02-10T09:12:39;7.18;;;4.13;;
65162;SDS011;51751;55.714;37.436;2023-02-10T09:15:05;12.23;;;5.63;;
65162;SDS011;51751;55.714;37.436;2023-02-10T09:17:32;8.10;;;4.75;;
65162;SDS011;51751;55.714;37.436;2023-02-10T09:19:57;17.30;;;5.03;;
65162;SDS011;51751;55.714;37.436;2023-02-10T09:22:23;14.60;;;6.57;;
65162;SDS011;51751;55.714;37.436;2023-02-10T09:24:50;8.63;;;4.50;;
65162;SDS011;51751;55.714;37.436;2023-02-10T09:27:18;11.13;;;5.35;;
65162;SDS011;51751;55.714;37.436;2023-02-10T09:29:44;8.60;;;4.53;;
65162;SDS011;51751;55.714;37.436;2023-02-10T09:32:11;8.57;;;4.57;;
65162;SDS011;51751;55.714;37.436;2023-02-10T09:34:37;9.25;;;5.10;;
65162;SDS011;51751;55.714;37.436;2023-02-10T09:37:05;10.73;;;5.40;;
65162;SDS011;51751;55.714;37.436;2023-02-10T09:39:31;9.95;;;5.10;;
65162;SDS011;51751;55.714;37.436;2023-02-10T09:42:14;8.05;;;4.53;;
65162;SDS011;51751;55.714;37.436;2023-02-10T09:44:51;8.43;;;5.13;;
65162;SDS011;51751;55.714;37.436;2023-02-10T09:52:40;9.13;;;4.90;;
65162;SDS011;51751;55.714;37.436;2023-02-10T09:55:28;8.65;;;4.95;;
65162;SDS011;51751;55.714;37.436;2023-02-10T10:03:50;12.77;;;5.15;;
65162;SDS011;51751;55.714;37.436;2023-02-10T10:06:21;8.73;;;4.53;;
65162;SDS011;51751;55.714;37.436;2023-02-10T10:08:53;11.27;;;4.43;;
65162;SDS011;51751;55.714;37.436;2023-02-10T10:11:25;6.75;;;4.20;;
65162;SDS011;51751;55.714;37.436;2023-02-10T10:13:55;8.13;;;4.47;;
65162;SDS011;51751;55.714;37.436;2023-02-10T10:16:29;8.48;;;4.45;;
65162;SDS011;51751;55.714;37.436;2023-02-10T10:27:45;8.43;;;4.60;;
65162;SDS011;51751;55.714;37.436;2023-02-10T10:30:33;9.38;;;4.60;;
65162;SDS011;51751;55.714;37.436;2023-02-10T10:33:20;11.48;;;4.68;;
65162;SDS011;51751;55.714;37.436;2023-02-10T10:36:10;6.25;;;3.60;;
65162;SDS011;51751;55.714;37.436;2023-02-10T10:38:40;9.25;;;4.30;;
65162;SDS011;51751;55.714;37.436;2023-02-10T10:41:12;8.43;;;4.10;;
65162;SDS011;51751;55.714;37.436;2023-02-10T10:43:42;9.52;;;5.03;;
65162;SDS011;51751;55.714;37.436;2023-02-10T10:48:42;7.95;;;4.30;;
65162;SDS011;51751;55.714;37.436;2023-02-10T10:51:08;10.32;;;4.38;;
65162;SDS011;51751;55.714;37.436;2023-02-10T10:53:53;8.43;;;4.47;;
65162;SDS011;51751;55.714;37.436;2023-02-10T10:58:51;12.35;;;4.68;;
65162;SDS011;51751;55.714;37.436;2023-02-10T11:04:24;11.65;;;5.07;;
65162;SDS011;51751;55.714;37.436;2023-02-10T11:06:50;11.20;;;5.07;;
65162;SDS011;51751;55.714;37.436;2023-02-10T11:12:01;9.98;;;4.97;;
65162;SDS011;51751;55.714;37.436;2023-02-10T11:14:28;10.57;;;4.95;;
65162;SDS011;51751;55.714;37.436;2023-02-10T11:20:04;8.70;;;4.22;;
65162;SDS011;51751;55.714;37.436;2023-02-10T11:22:31;7.82;;;4.97;;
65162;SDS011;51751;55.714;37.436;2023-02-10T11:25:01;9.85;;;5.47;;
65162;SDS011;51751;55.714;37.436;2023-02-10T11:27:31;12.88;;;5.13;;
65162;SDS011;51751;55.714;37.436;2023-02-10T11:29:57;9.23;;;5.07;;
65162;SDS011;51751;55.714;37.436;2023-02-10T11:32:33;10.57;;;5.28;;
65162;SDS011;51751;55.714;37.436;2023-02-10T11:35:01;11.10;;;5.53;;
65162;SDS011;51751;55.714;37.436;2023-02-10T11:37:30;12.13;;;5.28;;
65162;SDS011;51751;55.714;37.436;2023-02-10T11:40:21;8.60;;;4.60;;
65162;SDS011;51751;55.714;37.436;2023-02-10T11:42:50;12.25;;;6.00;;
65162;SDS011;51751;55.714;37.436;2023-02-10T11:45:19;12.20;;;5.20;;
65162;SDS011;51751;55.714;37.436;2023-02-10T11:47:58;9.85;;;5.07;;
65162;SDS011;51751;55.714;37.436;2023-02-10T11:50:30;10.38;;;5.53;;
65162;SDS011;51751;55.714;37.436;2023-02-10T11:52:58;7.97;;;4.50;;
65162;SDS011;51751;55.714;37.436;2023-02-10T11:55:35;11.82;;;5.32;;
65162;SDS011;51751;55.714;37.436;2023-02-10T12:00:58;13.68;;;6.40;;
65162;SDS011;51751;55.714;37.436;2023-02-10T12:09:31;10.38;;;4.72;;
65162;SDS011;51751;55.714;37.436;2023-02-10T12:12:47;9.82;;;4.85;;
65162;SDS011;51751;55.714;37.436;2023-02-10T12:17:31;10.70;;;5.78;;
65162;SDS011;51751;55.714;37.436;2023-02-10T12:20:06;11.95;;;6.25;;
65162;SDS011;51751;55.714;37.436;2023-02-10T12:23:04;11.93;;;5.90;;
65162;SDS011;51751;55.714;37.436;2023-02-10T12:25:41;12.05;;;4.35;;
65162;SDS011;51751;55.714;37.436;2023-02-10T12:28:27;9.40;;;5.32;;
65162;SDS011;51751;55.714;37.436;2023-02-10T12:31:15;10.18;;;5.57;;
65162;SDS011;51751;55.714;37.436;2023-02-10T12:34:34;13.57;;;5.57;;
65162;SDS011;51751;55.714;37.436;2023-02-10T12:36:56;16.88;;;4.85;;
65162;SDS011;51751;55.714;37.436;2023-02-10T12:51:03;13.20;;;6.10;;
65162;SDS011;51751;55.714;37.436;2023-02-10T12:53:59;10.95;;;5.53;;
65162;SDS011;51751;55.714;37.436;2023-02-10T12:56:40;10.65;;;5.70;;
65162;SDS011;51751;55.714;37.436;2023-02-10T12:59:16;11.98;;;6.55;;
65162;SDS011;51751;55.714;37.436;2023-02-10T13:01:55;10.13;;;5.72;;
65162;SDS011;51751;55.714;37.436;2023-02-10T13:04:26;15.68;;;6.55;;
65162;SDS011;51751;55.714;37.436;2023-02-10T13:06:58;13.27;;;5.93;;
65162;SDS011;51751;55.714;37.436;2023-02-10T13:09:28;22.20;;;6.18;;
65162;SDS011;51751;55.714;37.436;2023-02-10T13:14:30;15.00;;;6.32;;
65162;SDS011;51751;55.714;37.436;2023-02-10T13:16:57;14.35;;;6.07;;
65162;SDS011;51751;55.714;37.436;2023-02-10T13:22:24;11.75;;;6.43;;
65162;SDS011;51751;55.714;37.436;2023-02-10T13:24:44;11.38;;;5.57;;
65162;SDS011;51751;55.714;37.436;2023-02-10T13:27:36;12.68;;;5.85;;
65162;SDS011;51751;55.714;37.436;2023-02-10T13:33:13;8.68;;;5.50;;
65162;SDS011;51751;55.714;37.436;2023-02-10T13:36:04;10.25;;;5.70;;
65162;SDS011;51751;55.714;37.436;2023-02-10T13:38:33;8.95;;;5.05;;
65162;SDS011;51751;55.714;37.436;2023-02-10T13:41:00;14.13;;;6.22;;
65162;SDS011;51751;55.714;37.436;2023-02-10T13:44:03;10.18;;;5.53;;
65162;SDS011;51751;55.714;37.436;2023-02-10T13:46:30;22.23;;;6.32;;
65162;SDS011;51751;55.714;37.436;2023-02-10T13:48:57;14.60;;;5.65;;
65162;SDS011;51751;55.714;37.436;2023-02-10T13:51:28;12.52;;;6.65;;
65162;SDS011;51751;55.714;37.436;2023-02-10T13:54:01;8.82;;;5.07;;
65162;SDS011;51751;55.714;37.436;2023-02-10T13:56:31;14.55;;;6.55;;
65162;SDS011;51751;55.714;37.436;2023-02-10T13:58:59;9.73;;;5.00;;
65162;SDS011;51751;55.714;37.436;2023-02-10T14:01:43;11.75;;;5.47;;
65162;SDS011;51751;55.714;37.436;2023-02-10T14:06:42;19.23;;;6.22;;
65162;SDS011;51751;55.714;37.436;2023-02-10T14:12:25;13.30;;;6.30;;
65162;SDS011;51751;55.714;37.436;2023-02-10T14:14:52;14.73;;;5.60;;
65162;SDS011;51751;55.714;37.436;2023-02-10T14:17:22;12.00;;;6.25;;
65162;SDS011;51751;55.714;37.436;2023-02-10T14:19:54;10.88;;;5.55;;
65162;SDS011;51751;55.714;37.436;2023-02-10T14:24:48;12.32;;;6.28;;
65162;SDS011;51751;55.714;37.436;2023-02-10T14:27:14;12.85;;;5.85;;
65162;SDS011;51751;55.714;37.436;2023-02-10T14:29:46;12.88;;;6.53;;
65162;SDS011;51751;55.714;37.436;2023-02-10T14:32:18;16.58;;;5.97;;
65162;SDS011;51751;55.714;37.436;2023-02-10T14:34:54;12.07;;;5.68;;
65162;SDS011;51751;55.714;37.436;2023-02-10T14:37:29;10.57;;;5.05;;
65162;SDS011;51751;55.714;37.436;2023-02-10T14:39:58;11.35;;;5.72;;
65162;SDS011;51751;55.714;37.436;2023-02-10T14:42:27;10.25;;;5.05;;
65162;SDS011;51751;55.714;37.436;2023-02-10T14:44:55;15.88;;;5.90;;
65162;SDS011;51751;55.714;37.436;2023-02-10T14:50:20;10.43;;;5.65;;
65162;SDS011;51751;55.714;37.436;2023-02-10T14:52:48;10.55;;;5.25;;
65162;SDS011;51751;55.714;37.436;2023-02-10T14:57:49;11.97;;;6.03;;
65162;SDS011;51751;55.714;37.436;2023-02-10T15:00:16;13.52;;;5.80;;
65162;SDS011;51751;55.714;37.436;2023-02-10T15:02:45;12.75;;;6.13;;
65162;SDS011;51751;55.714;37.436;2023-02-10T15:05:16;10.32;;;5.05;;
65162;SDS011;51751;55.714;37.436;2023-02-10T15:07:45;9.20;;;4.93;;
65162;SDS011;51751;55.714;37.436;2023-02-10T15:12:53;11.23;;;6.15;;
65162;SDS011;51751;55.714;37.436;2023-02-10T15:17:54;14.05;;;6.38;;
65162;SDS011;51751;55.714;37.436;2023-02-10T15:20:50;11.25;;;5.88;;
65162;SDS011;51751;55.714;37.436;2023-02-10T15:23:19;11.00;;;5.40;;
65162;SDS011;51751;55.714;37.436;2023-02-10T15:25:45;9.55;;;4.88;;
65162;SDS011;51751;55.714;37.436;2023-02-10T15:33:29;8.77;;;4.95;;
65162;SDS011;51751;55.714;37.436;2023-02-10T15:43:53;11.57;;;5.95;;
65162;SDS011;51751;55.714;37.436;2023-02-10T15:46:20;10.10;;;5.63;;
65162;SDS011;51751;55.714;37.436;2023-02-10T15:48:48;10.48;;;6.20;;
65162;SDS011;51751;55.714;37.436;2023-02-10T15:51:24;11.93;;;6.82;;
65162;SDS011;51751;55.714;37.436;2023-02-10T15:53:51;12.15;;;6.65;;
65162;SDS011;51751;55.714;37.436;2023-02-10T15:56:22;10.02;;;5.82;;
65162;SDS011;51751;55.714;37.436;2023-02-10T15:58:49;12.25;;;5.95;;
65162;SDS011;51751;55.714;37.436;2023-02-10T16:01:15;11.82;;;6.10;;
65162;SDS011;51751;55.714;37.436;2023-02-10T16:03:41;13.45;;;6.90;;
65162;SDS011;51751;55.714;37.436;2023-02-10T16:06:13;9.48;;;5.32;;
65162;SDS011;51751;55.714;37.436;2023-02-10T16:08:59;11.63;;;6.25;;
65162;SDS011;51751;55.714;37.436;2023-02-10T16:11:25;13.02;;;6.57;;
65162;SDS011;51751;55.714;37.436;2023-02-10T16:13:54;10.32;;;5.82;;
65162;SDS011;51751;55.714;37.436;2023-02-10T16:16:20;11.02;;;6.03;;
65162;SDS011;51751;55.714;37.436;2023-02-10T16:18:46;15.02;;;7.05;;
65162;SDS011;51751;55.714;37.436;2023-02-10T16:21:12;13.43;;;6.70;;
65162;SDS011;51751;55.714;37.436;2023-02-10T16:23:41;14.75;;;7.47;;
65162;SDS011;51751;55.714;37.436;2023-02-10T16:28:56;11.13;;;5.93;;
65162;SDS011;51751;55.714;37.436;2023-02-10T16:31:22;15.80;;;6.47;;
65162;SDS011;51751;55.714;37.436;2023-02-10T16:33:48;13.82;;;6.30;;
65162;SDS011;51751;55.714;37.436;2023-02-10T16:36:15;17.27;;;7.53;;
65162;SDS011;51751;55.714;37.436;2023-02-10T16:38:43;14.32;;;7.20;;
65162;SDS011;51751;55.714;37.436;2023-02-10T16:41:09;15.15;;;7.72;;
65162;SDS011;51751;55.714;37.436;2023-02-10T16:43:35;16.88;;;7.65;;
65162;SDS011;51751;55.714;37.436;2023-02-10T16:46:01;15.20;;;7.75;;
65162;SDS011;51751;55.714;37.436;2023-02-10T16:48:28;25.42;;;8.65;;